Time;durP1;ratioP1;P1;durP2;ratioP2;P2;SDS_P1;SDS_P2;PMS_P1;PMS_P2;Temp;Humidity;BMP_temperature;BMP_pressure;BME280_temperature;BME280_humidity;BME280_pressure;Samples;Min_cycle;Max_cycle;Signal;HPM_P1;HPM_P2
2023/01/29 00:01:18;;;;;;;79.22;69.70;;;;;;;-0.29;100.00;101410.75;5067767;28;20731;-80
2023/01/29 00:03:45;;;;;;;82.40;67.43;;;;;;;-0.37;100.00;101407.91;5067074;28;20053;-80
2023/01/29 00:06:12;;;;;;;81.15;65.78;;;;;;;-0.41;100.00;101414.31;5068320;28;20053;-80
2023/01/29 00:08:39;;;;;;;86.15;65.43;;;;;;;-0.30;100.00;101415.16;5060480;28;20048;-79
2023/01/29 00:11:08;;;;;;;82.63;67.72;;;;;;;-0.30;100.00;101423.00;5067739;28;20040;-80
2023/01/29 00:13:35;;;;;;;78.10;69.50;;;;;;;-0.28;100.00;101426.28;5066096;28;20052;-80
2023/01/29 00:16:02;;;;;;;82.93;66.82;;;;;;;-0.27;100.00;101422.75;5067223;28;20053;-80
2023/01/29 00:18:29;;;;;;;88.00;70.32;;;;;;;-0.39;100.00;101435.91;5065350;28;20053;-80
2023/01/29 00:20:56;;;;;;;93.18;72.65;;;;;;;-0.31;100.00;101436.16;5069663;28;20059;-79
2023/01/29 00:23:23;;;;;;;81.10;67.05;;;;;;;-0.35;100.00;101429.50;5057912;28;20053;-80
2023/01/29 00:25:50;;;;;;;70.72;63.35;;;;;;;-0.38;100.00;101441.00;5068243;28;20044;-79
2023/01/29 00:28:18;;;;;;;71.82;64.43;;;;;;;-0.44;100.00;101446.69;5067805;28;20044;-79
2023/01/29 00:30:45;;;;;;;68.70;60.47;;;;;;;-0.42;100.00;101449.19;5067507;28;20056;-79
2023/01/29 00:33:14;;;;;;;74.45;60.90;;;;;;;-0.37;100.00;101452.28;5066201;28;20056;-79
2023/01/29 00:35:41;;;;;;;80.95;71.15;;;;;;;-0.29;100.00;101460.38;5065792;28;20048;-79
2023/01/29 00:38:08;;;;;;;81.47;68.25;;;;;;;-0.27;100.00;101459.31;5067638;28;20097;-79
2023/01/29 00:46:06;;;;;;;69.97;62.42;;;;;;;-0.30;100.00;101456.09;5066243;28;20075;-79
2023/01/29 00:48:34;;;;;;;71.45;63.08;;;;;;;-0.26;100.00;101452.28;5068759;28;20079;-79
2023/01/29 00:51:00;;;;;;;71.75;62.38;;;;;;;-0.26;100.00;101449.69;5072485;28;20488;-79
2023/01/29 00:53:28;;;;;;;73.90;64.78;;;;;;;-0.22;100.00;101464.16;5066628;28;20057;-79
2023/01/29 00:55:54;;;;;;;74.47;64.78;;;;;;;-0.24;100.00;101464.28;5070903;28;20520;-80
2023/01/29 00:58:27;;;;;;;71.40;63.88;;;;;;;-0.18;100.00;101463.00;5069123;28;20052;-80
2023/01/29 01:00:54;;;;;;;71.05;63.40;;;;;;;-0.17;100.00;101462.03;5071693;28;20449;-80
2023/01/29 01:03:20;;;;;;;99.18;84.88;;;;;;;-0.28;100.00;101464.63;5067194;28;20040;-80
2023/01/29 01:05:47;;;;;;;69.20;62.28;;;;;;;-0.31;100.00;101470.91;5065873;28;20057;-80
2023/01/29 01:11:01;;;;;;;71.30;63.88;;;;;;;-0.22;100.00;101472.00;5069348;28;21589;-79
2023/01/29 01:13:31;;;;;;;77.97;69.72;;;;;;;-0.28;100.00;101470.69;5069418;28;20056;-79
2023/01/29 01:15:58;;;;;;;64.57;58.38;;;;;;;-0.29;100.00;101470.81;5071605;28;20052;-79
2023/01/29 01:18:24;;;;;;;71.68;63.83;;;;;;;-0.37;100.00;101465.34;5068810;28;20072;-80
2023/01/29 01:20:57;;;;;;;75.72;67.57;;;;;;;-0.24;100.00;101474.75;5065117;28;20422;-79
2023/01/29 01:23:23;;;;;;;;;;;;;;;-0.24;100.00;101471.28;5074975;28;20044;-79
2023/01/29 01:25:50;;;;;;;64.43;58.17;;;;;;;-0.31;100.00;101470.09;5065562;28;19928;-79
2023/01/29 01:28:17;;;;;;;78.18;69.68;;;;;;;-0.29;100.00;101465.59;5064129;28;20049;-79
2023/01/29 01:30:45;;;;;;;75.38;67.32;;;;;;;-0.33;100.00;101469.38;5065268;28;20048;-79
2023/01/29 01:33:12;;;;;;;71.13;64.13;;;;;;;-0.30;100.00;101466.53;5065588;28;20053;-79
2023/01/29 01:35:39;;;;;;;453.58;236.95;;;;;;;-0.34;100.00;101468.53;5064635;28;20060;-79
2023/01/29 01:38:06;;;;;;;342.17;161.82;;;;;;;-0.22;100.00;101471.16;5063876;28;20049;-79
2023/01/29 01:40:33;;;;;;;395.17;213.00;;;;;;;-0.36;100.00;101467.84;5067090;28;20041;-79
2023/01/29 01:43:00;;;;;;;125.07;86.93;;;;;;;-0.29;100.00;101470.81;5062887;28;20452;-79
2023/01/29 01:45:29;;;;;;;77.57;70.03;;;;;;;-0.21;100.00;101468.44;5069523;28;20426;-79
2023/01/29 01:48:01;;;;;;;66.88;61.05;;;;;;;-0.19;100.00;101463.09;5065680;28;20044;-79
2023/01/29 01:50:34;;;;;;;86.65;75.32;;;;;;;-0.14;100.00;101474.84;5065006;28;20071;-79
2023/01/29 01:53:06;;;;;;;211.93;129.75;;;;;;;-0.15;100.00;101467.13;5056649;28;20064;-79
2023/01/29 01:55:35;;;;;;;78.00;69.90;;;;;;;-0.20;100.00;101472.72;5066788;28;20087;-79
2023/01/29 01:58:11;;;;;;;78.25;70.47;;;;;;;-0.19;100.00;101463.94;5066708;28;20053;-79
2023/01/29 02:00:39;;;;;;;119.97;92.93;;;;;;;-0.25;100.00;101467.84;5062103;28;20053;-79
2023/01/29 02:11:31;;;;;;;683.22;309.10;;;;;;;-0.29;100.00;101471.63;5062465;28;20438;-79
2023/01/29 02:13:59;;;;;;;382.20;159.13;;;;;;;-0.30;100.00;101462.16;5065660;28;20052;-79
2023/01/29 02:16:26;;;;;;;747.05;320.63;;;;;;;-0.33;100.00;101465.00;5064695;28;20041;-79
2023/01/29 02:18:54;;;;;;;822.00;385.27;;;;;;;-0.31;100.00;101468.28;5064752;28;20135;-79
2023/01/29 02:21:41;;;;;;;1253.15;590.28;;;;;;;-0.35;100.00;101459.06;5063840;28;20105;-79
2023/01/29 02:24:45;;;;;;;444.08;192.35;;;;;;;-0.29;100.00;101465.59;5068952;28;20045;-79
2023/01/29 02:27:15;;;;;;;1599.07;645.78;;;;;;;-0.22;100.00;101465.94;5060358;28;20048;-79
2023/01/29 02:29:53;;;;;;;498.30;217.00;;;;;;;-0.34;100.00;101472.94;5065456;28;20090;-78
2023/01/29 02:32:28;;;;;;;1711.45;682.58;;;;;;;-0.24;100.00;101479.97;5069727;28;20049;-79
2023/01/29 02:37:57;;;;;;;570.20;264.80;;;;;;;-0.38;100.00;101472.34;5063838;28;20076;-79
2023/01/29 02:40:30;;;;;;;151.85;91.63;;;;;;;-0.36;100.00;101467.00;5066591;28;20067;-79
2023/01/29 02:43:06;;;;;;;415.20;190.98;;;;;;;-0.35;100.00;101477.31;5065995;28;20076;-79
2023/01/29 02:45:43;;;;;;;752.65;464.88;;;;;;;-0.30;100.00;101482.22;5060702;28;20045;-79
2023/01/29 02:48:15;;;;;;;161.07;109.90;;;;;;;-0.31;100.00;101483.97;5068517;28;20045;-79
2023/01/29 02:50:45;;;;;;;71.93;65.00;;;;;;;-0.37;100.00;101481.81;5063507;28;20055;-78
2023/01/29 02:53:15;;;;;;;65.45;59.50;;;;;;;-0.34;100.00;101480.75;5067612;28;20060;-79
2023/01/29 02:55:48;;;;;;;63.00;56.60;;;;;;;-0.29;100.00;101487.31;5063290;28;20049;-79
2023/01/29 02:58:22;;;;;;;72.78;60.22;;;;;;;-0.33;100.00;101485.06;5065253;28;20114;-79
2023/01/29 03:00:53;;;;;;;75.95;64.38;;;;;;;-0.30;100.00;101482.22;5062704;28;20044;-79
2023/01/29 03:03:24;;;;;;;68.20;60.67;;;;;;;-0.30;100.00;101484.81;5066480;28;20048;-79
2023/01/29 03:05:58;;;;;;;63.05;56.42;;;;;;;-0.35;100.00;101492.16;5066134;28;20075;-79
2023/01/29 03:08:36;;;;;;;66.47;60.03;;;;;;;-0.32;100.00;101487.53;5055117;28;20099;-79
2023/01/29 03:11:04;;;;;;;60.75;54.58;;;;;;;-0.35;100.00;101487.75;5063659;28;20040;-79
2023/01/29 03:13:38;;;;;;;65.32;58.83;;;;;;;-0.35;100.00;101489.53;5063894;28;20556;-79
2023/01/29 03:16:14;;;;;;;59.17;53.58;;;;;;;-0.40;100.00;101484.66;5062942;28;20048;-79
2023/01/29 03:18:45;;;;;;;61.33;55.28;;;;;;;-0.34;100.00;101494.63;5062207;28;20044;-79
2023/01/29 03:32:22;;;;;;;60.83;55.38;;;;;;;-0.27;100.00;101495.84;5063864;28;20047;-79
2023/01/29 03:34:51;;;;;;;57.80;52.58;;;;;;;-0.39;100.00;101490.72;5062608;28;20127;-79
2023/01/29 03:37:25;;;;;;;57.97;52.97;;;;;;;-0.37;100.00;101496.66;5062938;28;20092;-79
2023/01/29 03:39:52;;;;;;;57.22;52.42;;;;;;;-0.41;100.00;101496.06;5067300;28;20045;-79
2023/01/29 03:42:24;;;;;;;57.22;51.95;;;;;;;-0.39;100.00;101495.94;5063153;28;20076;-79
2023/01/29 03:45:00;;;;;;;55.13;50.15;;;;;;;-0.30;100.00;101503.09;5062873;28;20045;-79
2023/01/29 03:47:41;;;;;;;53.17;48.83;;;;;;;-0.33;100.00;101503.31;5062746;28;20044;-79
2023/01/29 03:50:19;;;;;;;54.13;49.65;;;;;;;-0.21;100.00;101504.16;5062526;28;20425;-79
2023/01/29 03:52:51;;;;;;;54.25;49.45;;;;;;;-0.38;100.00;101490.59;5056937;28;20502;-79
2023/01/29 03:55:22;;;;;;;53.80;49.10;;;;;;;-0.24;100.00;101505.25;5060055;28;20052;-79
2023/01/29 03:57:57;;;;;;;66.32;60.17;;;;;;;-0.30;100.00;101500.47;5067068;28;20048;-79
2023/01/29 04:00:28;;;;;;;84.30;67.15;;;;;;;-0.26;100.00;101499.28;5060962;28;20045;-79
2023/01/29 04:03:06;;;;;;;88.90;65.88;;;;;;;-0.20;100.00;101500.63;5063038;28;20083;-79
2023/01/29 04:05:40;;;;;;;95.88;72.03;;;;;;;-0.40;100.00;101502.09;5062971;28;20082;-79
2023/01/29 04:08:11;;;;;;;96.10;72.63;;;;;;;-0.34;100.00;101504.25;5054093;28;20086;-79
2023/01/29 04:10:40;;;;;;;84.78;66.15;;;;;;;-0.37;100.00;101507.09;5063950;28;20049;-79
2023/01/29 04:13:10;;;;;;;80.45;66.00;;;;;;;-0.34;100.00;101510.31;5064652;28;20058;-79
2023/01/29 04:15:41;;;;;;;71.03;63.22;;;;;;;-0.29;100.00;101510.78;5064471;28;20480;-80
2023/01/29 04:18:09;;;;;;;65.22;58.38;;;;;;;-0.33;100.00;101506.75;5064653;28;20051;-79
2023/01/29 04:20:37;;;;;;;65.38;57.88;;;;;;;-0.35;100.00;101510.44;5062689;28;20098;-79
2023/01/29 04:23:06;;;;;;;68.90;61.45;;;;;;;-0.33;100.00;101511.16;5053964;28;20107;-79
2023/01/29 04:25:46;;;;;;;79.85;65.45;;;;;;;-0.21;100.00;101504.16;5064052;28;20048;-79
2023/01/29 04:28:19;;;;;;;103.95;80.35;;;;;;;-0.32;100.00;101510.19;5060524;28;20457;-79
2023/01/29 04:30:53;;;;;;;91.07;72.43;;;;;;;-0.28;100.00;101519.44;5060401;28;20049;-79
2023/01/29 04:33:34;;;;;;;64.50;57.55;;;;;;;-0.30;100.00;101513.53;5062749;28;20571;-79
2023/01/29 04:36:18;;;;;;;70.78;62.05;;;;;;;-0.29;100.00;101521.25;5061238;28;20049;-78
2023/01/29 04:38:57;;;;;;;112.32;80.82;;;;;;;-0.28;100.00;101509.84;5065953;28;20498;-79
2023/01/29 04:41:30;;;;;;;66.45;59.13;;;;;;;-0.39;100.00;101517.66;5064154;28;20056;-79
2023/01/29 04:44:05;;;;;;;58.90;53.45;;;;;;;-0.38;100.00;101524.53;5063848;28;20044;-79
2023/01/29 04:46:39;;;;;;;58.10;52.65;;;;;;;-0.39;100.00;101511.59;5061235;28;20052;-79
2023/01/29 04:49:18;;;;;;;64.40;57.90;;;;;;;-0.42;100.00;101515.28;5060281;28;20049;-78
2023/01/29 04:51:51;;;;;;;68.32;61.17;;;;;;;-0.44;100.00;101514.56;5063925;28;20593;-79
2023/01/29 04:54:28;;;;;;;61.88;56.30;;;;;;;-0.42;100.00;101528.34;5057425;28;20080;-79
2023/01/29 04:57:02;;;;;;;64.35;58.08;;;;;;;-0.40;100.00;101525.59;5062513;28;20045;-78
2023/01/29 04:59:34;;;;;;;71.45;64.43;;;;;;;-0.33;100.00;101532.88;5060051;28;20048;-79
2023/01/29 05:02:01;;;;;;;67.88;60.80;;;;;;;-0.41;100.00;101524.78;5061926;28;20568;-79
2023/01/29 05:04:33;;;;;;;73.05;65.63;;;;;;;-0.41;100.00;101523.94;5059955;28;20075;-79
2023/01/29 05:07:04;;;;;;;62.70;56.90;;;;;;;-0.35;100.00;101523.47;5063497;28;20106;-79
2023/01/29 05:09:33;;;;;;;61.20;55.42;;;;;;;-0.43;100.00;101544.09;5066463;28;20334;-79
2023/01/29 05:12:01;;;;;;;59.47;53.78;;;;;;;-0.48;100.00;101539.25;5061729;28;20056;-79
2023/01/29 05:14:30;;;;;;;57.50;52.60;;;;;;;-0.54;100.00;101544.91;5063530;28;20041;-79
2023/01/29 05:17:02;;;;;;;57.05;51.72;;;;;;;-0.47;100.00;101541.72;5059510;28;20052;-79
2023/01/29 05:19:30;;;;;;;60.42;54.78;;;;;;;-0.48;100.00;101549.69;5059378;28;20107;-79
2023/01/29 05:21:58;;;;;;;57.00;51.45;;;;;;;-0.49;100.00;101556.66;5061073;28;20049;-79
2023/01/29 05:24:26;;;;;;;55.35;49.92;;;;;;;-0.51;100.00;101558.56;5057983;28;20052;-78
2023/01/29 05:29:42;;;;;;;55.95;50.03;;;;;;;-0.56;100.00;101555.44;5062123;28;20120;-79
2023/01/29 05:32:09;;;;;;;52.67;47.63;;;;;;;-0.54;100.00;101566.63;5061691;28;20044;-79
2023/01/29 05:34:38;;;;;;;51.05;46.25;;;;;;;-0.51;100.00;101561.16;5062171;28;20048;-80
2023/01/29 05:37:04;;;;;;;54.63;49.33;;;;;;;-0.56;100.00;101559.84;5064557;28;20476;-79
2023/01/29 05:39:31;;;;;;;57.38;51.78;;;;;;;-0.58;100.00;101566.94;5069663;28;20127;-79
2023/01/29 05:41:59;;;;;;;62.03;55.58;;;;;;;-0.55;100.00;101570.16;5064800;28;20518;-79
2023/01/29 05:44:25;;;;;;;60.35;54.67;;;;;;;-0.59;100.00;101573.94;5065070;28;20045;-79
2023/01/29 05:46:52;;;;;;;65.00;58.75;;;;;;;-0.68;100.00;101566.78;5066677;28;20060;-79
2023/01/29 05:49:21;;;;;;;63.90;56.90;;;;;;;-0.67;100.00;101578.88;5066954;28;20048;-79
2023/01/29 05:51:49;;;;;;;62.97;56.97;;;;;;;-0.64;100.00;101581.25;5064405;28;20049;-79
2023/01/29 05:54:16;;;;;;;63.38;56.90;;;;;;;-0.62;100.00;101586.38;5059629;28;20110;-79
2023/01/29 05:56:42;;;;;;;64.95;58.30;;;;;;;-0.70;100.00;101585.19;5064937;28;20053;-78
2023/01/29 05:59:09;;;;;;;64.68;58.08;;;;;;;-0.49;100.00;101594.97;5062942;28;20040;-79
2023/01/29 06:01:36;;;;;;;64.43;58.10;;;;;;;-0.49;100.00;101598.41;5063990;28;20056;-79
2023/01/29 06:04:03;;;;;;;62.65;56.72;;;;;;;-0.49;100.00;101595.81;5065815;28;20044;-79
2023/01/29 06:06:30;;;;;;;59.20;53.50;;;;;;;-0.47;100.00;101593.09;5065071;28;20064;-79
2023/01/29 06:08:58;;;;;;;59.72;53.78;;;;;;;-0.37;100.00;101601.91;5057671;28;20141;-79
2023/01/29 06:11:25;;;;;;;63.25;57.00;;;;;;;-0.43;100.00;101601.53;5066737;28;20044;-78
2023/01/29 06:13:52;;;;;;;63.40;57.08;;;;;;;-0.36;100.00;101607.97;5066861;28;20045;-79
2023/01/29 06:16:19;;;;;;;62.08;55.88;;;;;;;-0.48;100.00;101613.16;5064526;28;20049;-79
2023/01/29 06:18:45;;;;;;;61.95;55.65;;;;;;;-0.41;100.00;101604.88;5064122;28;20053;-79
2023/01/29 06:21:13;;;;;;;61.95;55.83;;;;;;;-0.43;100.00;101614.56;5066467;28;20045;-79
2023/01/29 06:23:40;;;;;;;58.40;53.00;;;;;;;-0.22;100.00;101620.00;5058166;28;20121;-79
2023/01/29 06:26:11;;;;;;;62.80;56.45;;;;;;;-0.25;100.00;101621.88;5063850;28;20052;-79
2023/01/29 06:28:38;;;;;;;61.63;55.65;;;;;;;-0.37;100.00;101624.56;5066288;28;20056;-79
2023/01/29 06:31:07;;;;;;;61.28;55.03;;;;;;;-0.32;100.00;101625.06;5064379;28;20054;-79
2023/01/29 06:33:34;;;;;;;65.13;56.20;;;;;;;-0.42;100.00;101627.53;5064775;28;20051;-79
2023/01/29 06:36:04;;;;;;;61.65;54.95;;;;;;;-0.20;100.00;101629.38;5063418;28;20102;-79
2023/01/29 06:38:31;;;;;;;65.50;58.35;;;;;;;-0.03;100.00;101636.81;5068052;28;20092;-79
2023/01/29 06:40:58;;;;;;;56.05;50.28;;;;;;;-0.18;100.00;101637.94;5064683;28;20103;-79
2023/01/29 06:43:26;;;;;;;53.53;48.45;;;;;;;0.09;100.00;101640.28;5063576;28;20040;-79
2023/01/29 06:45:55;;;;;;;57.03;51.17;;;;;;;0.07;100.00;101657.00;5064058;28;20049;-79
2023/01/29 06:48:22;;;;;;;59.75;53.60;;;;;;;0.16;100.00;101651.94;5066357;28;20052;-79
2023/01/29 06:50:49;;;;;;;65.10;57.65;;;;;;;-0.13;100.00;101650.66;5066161;28;20049;-79
2023/01/29 06:53:16;;;;;;;63.20;56.25;;;;;;;-0.05;100.00;101645.69;5054902;28;20491;-79
2023/01/29 06:55:50;;;;;;;61.92;55.20;;;;;;;-0.01;100.00;101645.34;5064826;28;20506;-79
2023/01/29 06:58:17;;;;;;;53.25;48.15;;;;;;;0.02;100.00;101644.28;5065746;28;20472;-79
2023/01/29 07:00:45;;;;;;;62.58;55.78;;;;;;;-0.04;100.00;101658.63;5065740;28;20067;-79
2023/01/29 07:03:12;;;;;;;64.93;57.90;;;;;;;0.19;100.00;101641.25;5065748;28;20055;-79
2023/01/29 07:05:39;;;;;;;56.70;51.25;;;;;;;0.10;100.00;101639.31;5064639;28;20044;-79
2023/01/29 07:08:05;;;;;;;56.03;50.40;;;;;;;0.11;100.00;101651.44;5055516;28;20110;-79
2023/01/29 07:10:32;;;;;;;57.58;51.80;;;;;;;0.29;100.00;101649.22;5065145;28;20449;-79
2023/01/29 07:12:59;;;;;;;61.20;55.13;;;;;;;0.30;100.00;101647.44;5061008;28;20391;-79
2023/01/29 07:15:27;;;;;;;57.17;51.50;;;;;;;0.33;100.00;101648.03;5068067;28;20045;-79
2023/01/29 07:17:59;;;;;;;54.90;49.72;;;;;;;0.31;100.00;101651.72;5059284;28;20048;-79
2023/01/29 07:20:26;;;;;;;52.25;47.42;;;;;;;0.41;100.00;101648.28;5066854;28;20048;-79
2023/01/29 07:22:53;;;;;;;52.75;47.33;;;;;;;0.69;100.00;101659.22;5056935;28;20045;-79
2023/01/29 07:25:20;;;;;;;50.90;46.47;;;;;;;0.34;100.00;101647.09;5061025;28;20049;-79
2023/01/29 07:27:48;;;;;;;53.22;48.20;;;;;;;0.56;100.00;101661.97;5067805;28;20052;-79
2023/01/29 07:30:16;;;;;;;54.95;49.95;;;;;;;0.55;100.00;101665.53;5066005;28;20048;-79
2023/01/29 07:32:42;;;;;;;54.40;49.22;;;;;;;0.62;100.00;101674.56;5061649;28;20048;-79
2023/01/29 07:35:11;;;;;;;54.97;49.75;;;;;;;0.53;100.00;101671.84;5064976;28;20045;-79
2023/01/29 07:37:37;;;;;;;50.53;46.42;;;;;;;0.66;100.00;101681.22;5062503;28;20051;-79
2023/01/29 07:40:10;;;;;;;51.95;47.55;;;;;;;0.91;100.00;101689.81;5064867;28;20083;-79
2023/01/29 07:42:37;;;;;;;51.67;47.08;;;;;;;0.90;100.00;101688.13;5063791;28;20045;-80
2023/01/29 07:45:04;;;;;;;53.03;48.22;;;;;;;0.93;100.00;101692.28;5063644;28;20057;-79
2023/01/29 07:47:31;;;;;;;60.35;54.05;;;;;;;0.68;100.00;101688.97;5068458;28;20506;-79
2023/01/29 07:49:58;;;;;;;60.25;54.17;;;;;;;0.85;100.00;101693.72;5063440;28;20480;-79
2023/01/29 07:52:26;;;;;;;60.70;53.88;;;;;;;0.83;100.00;101679.94;5066887;28;20532;-79
2023/01/29 07:54:53;;;;;;;60.88;54.33;;;;;;;0.61;100.00;101687.78;5071517;28;20056;-79
2023/01/29 07:57:19;;;;;;;74.57;60.22;;;;;;;0.65;100.00;101686.59;5067402;28;20048;-80
2023/01/29 07:59:46;;;;;;;57.60;52.10;;;;;;;0.71;100.00;101687.91;5066909;28;20117;-79
2023/01/29 08:02:13;;;;;;;56.88;51.50;;;;;;;0.59;100.00;101682.66;5067398;28;20498;-80
2023/01/29 08:04:40;;;;;;;67.65;61.03;;;;;;;0.67;100.00;101685.50;5067781;28;20498;-80
2023/01/29 08:07:08;;;;;;;55.95;50.60;;;;;;;0.85;100.00;101690.28;5066100;28;20395;-80
2023/01/29 08:09:36;;;;;;;62.90;57.28;;;;;;;0.89;100.00;101687.28;5064449;28;20123;-79
2023/01/29 08:12:03;;;;;;;53.72;49.25;;;;;;;0.95;100.00;101682.56;5062676;28;20502;-79
2023/01/29 08:14:30;;;;;;;57.88;52.58;;;;;;;0.95;100.00;101685.16;5062532;28;20469;-79
2023/01/29 08:16:56;;;;;;;62.63;56.72;;;;;;;0.99;100.00;101689.19;5063628;28;20061;-81
2023/01/29 08:19:23;;;;;;;57.45;52.25;;;;;;;0.84;100.00;101699.88;5064896;28;20106;-79
2023/01/29 08:21:50;;;;;;;69.82;60.75;;;;;;;1.04;100.00;101708.81;5064744;28;20048;-79
2023/01/29 08:24:17;;;;;;;56.55;51.70;;;;;;;0.90;100.00;101704.66;5067877;28;20047;-79
2023/01/29 08:26:45;;;;;;;58.50;53.33;;;;;;;0.82;100.00;101704.44;5066004;28;20131;-80
2023/01/29 08:29:12;;;;;;;53.63;48.80;;;;;;;1.09;100.00;101708.44;5064516;28;20083;-79
2023/01/29 08:31:39;;;;;;;51.00;46.70;;;;;;;1.00;100.00;101709.16;5064283;28;20048;-79
2023/01/29 08:34:05;;;;;;;53.88;49.20;;;;;;;1.24;100.00;101703.81;5064898;28;20052;-81
2023/01/29 08:36:32;;;;;;;53.50;49.08;;;;;;;1.16;100.00;101714.06;5062840;28;20476;-79
2023/01/29 08:38:59;;;;;;;54.70;49.75;;;;;;;1.19;100.00;101708.59;5057209;28;20136;-80
2023/01/29 08:41:26;;;;;;;52.70;48.60;;;;;;;1.17;100.00;101723.56;5064245;28;20497;-80
2023/01/29 08:43:54;;;;;;;52.67;48.08;;;;;;;1.48;100.00;101714.13;5063070;28;20054;-79
2023/01/29 08:46:20;;;;;;;53.28;48.50;;;;;;;1.42;100.00;101715.44;5062150;28;20514;-79
2023/01/29 08:48:47;;;;;;;52.75;48.17;;;;;;;1.68;100.00;101712.53;5063936;28;20049;-79
2023/01/29 08:51:14;;;;;;;50.75;46.63;;;;;;;1.72;100.00;101714.75;5063486;28;20048;-79
2023/01/29 08:53:40;;;;;;;52.95;48.45;;;;;;;1.79;100.00;101717.75;5055607;28;20495;-79
2023/01/29 08:56:08;;;;;;;53.67;48.95;;;;;;;1.97;100.00;101718.88;5062620;28;20126;-79
2023/01/29 08:58:34;;;;;;;51.42;47.33;;;;;;;1.52;100.00;101721.63;5062764;28;20078;-79
2023/01/29 09:01:13;;;;;;;55.00;50.13;;;;;;;1.64;100.00;101730.28;5060938;28;20053;-80
2023/01/29 09:03:42;;;;;;;52.47;48.00;;;;;;;1.89;100.00;101728.31;5064087;28;20092;-80
2023/01/29 09:06:10;;;;;;;50.45;46.45;;;;;;;2.23;100.00;101726.38;5061477;28;20058;-79
2023/01/29 09:08:36;;;;;;;50.83;46.88;;;;;;;2.15;100.00;101731.41;5062155;28;20122;-79
2023/01/29 09:11:03;;;;;;;49.72;45.90;;;;;;;2.00;100.00;101726.47;5066285;28;20049;-79
2023/01/29 09:13:30;;;;;;;48.42;44.95;;;;;;;1.84;100.00;101718.19;5069885;28;20105;-79
2023/01/29 09:15:59;;;;;;;49.97;46.22;;;;;;;2.10;100.00;101737.03;5066492;28;20048;-79
2023/01/29 09:18:28;;;;;;;52.88;48.67;;;;;;;2.01;100.00;101728.13;5066816;28;20152;-79
2023/01/29 09:20:54;;;;;;;50.60;46.40;;;;;;;2.02;100.00;101727.16;5068483;28;20049;-80
2023/01/29 09:23:21;;;;;;;51.10;47.00;;;;;;;2.30;100.00;101709.19;5066449;28;20053;-79
2023/01/29 09:25:48;;;;;;;48.13;44.45;;;;;;;1.25;100.00;101718.56;5066055;28;20049;-79
2023/01/29 09:28:16;;;;;;;48.60;44.80;;;;;;;1.49;100.00;101714.00;5064005;28;20102;-79
2023/01/29 09:30:43;;;;;;;50.20;46.28;;;;;;;1.97;100.00;101718.03;5065870;28;20515;-79
2023/01/29 09:33:10;;;;;;;48.53;44.60;;;;;;;1.95;100.00;101710.28;5066090;28;20049;-79
2023/01/29 09:35:40;;;;;;;48.22;44.65;;;;;;;2.05;100.00;101700.69;5068966;28;20049;-79
2023/01/29 09:38:07;;;;;;;49.30;45.40;;;;;;;1.00;100.00;101709.16;5067268;28;20048;-79
2023/01/29 09:40:37;;;;;;;48.60;44.85;;;;;;;1.35;100.00;101704.63;5067561;28;20056;-79
2023/01/29 09:43:07;;;;;;;49.47;45.67;;;;;;;1.67;100.00;101692.53;5064216;28;20095;-80
2023/01/29 09:45:35;;;;;;;51.10;47.13;;;;;;;1.24;100.00;101696.81;5068759;28;20565;-80
2023/01/29 09:48:05;;;;;;;52.13;47.90;;;;;;;1.33;100.00;101688.22;5061248;28;20103;-79
2023/01/29 09:50:35;;;;;;;52.70;48.55;;;;;;;1.50;100.00;101696.50;5065916;28;20055;-79
2023/01/29 09:53:15;;;;;;;51.25;47.30;;;;;;;1.53;100.00;101688.41;5073982;28;20106;-80
2023/01/29 09:55:48;;;;;;;51.40;47.33;;;;;;;1.76;100.00;101690.00;5064457;28;20551;-80
2023/01/29 09:58:22;;;;;;;51.42;47.45;;;;;;;1.64;100.00;101690.16;5066987;28;20045;-79
2023/01/29 10:00:59;;;;;;;49.20;45.60;;;;;;;1.58;100.00;101681.84;5063986;28;20521;-79
2023/01/29 10:03:50;;;;;;;51.20;47.10;;;;;;;1.62;100.00;101681.59;5064701;28;20517;-79
2023/01/29 10:06:47;;;;;;;48.35;44.75;;;;;;;0.94;100.00;101686.97;5063265;28;20048;-79
2023/01/29 10:09:42;;;;;;;51.35;47.38;;;;;;;1.43;100.00;101690.09;5070500;28;20074;-79
2023/01/29 10:12:20;;;;;;;51.20;47.17;;;;;;;1.63;100.00;101681.47;5066460;28;20115;-79
2023/01/29 10:14:56;;;;;;;51.17;47.47;;;;;;;1.20;100.00;101678.84;5064210;28;20115;-79
2023/01/29 10:17:44;;;;;;;51.45;47.55;;;;;;;0.83;100.00;101682.53;5065509;28;20115;-79
2023/01/29 10:20:39;;;;;;;51.42;47.28;;;;;;;1.56;100.00;101669.81;5064522;28;20456;-79
2023/01/29 10:23:16;;;;;;;49.10;45.70;;;;;;;1.13;100.00;101668.03;5056392;28;20052;-79
2023/01/29 10:25:47;;;;;;;51.80;47.80;;;;;;;1.69;100.00;101657.38;5064764;28;20048;-79
2023/01/29 10:28:18;;;;;;;52.10;48.10;;;;;;;1.72;100.00;101661.56;5069782;28;20128;-79
2023/01/29 10:30:48;;;;;;;49.97;46.15;;;;;;;1.67;100.00;101654.09;5064670;28;20044;-79
2023/01/29 10:33:20;;;;;;;53.22;49.13;;;;;;;1.44;100.00;101657.72;5065043;28;20477;-80
2023/01/29 10:35:51;;;;;;;51.28;47.55;;;;;;;1.24;100.00;101667.16;5065123;28;20057;-80
2023/01/29 10:38:36;;;;;;;52.42;48.33;;;;;;;1.14;100.00;101660.03;5063037;28;20052;-79
2023/01/29 10:41:20;;;;;;;86.18;64.28;;;;;;;1.46;100.00;101661.88;5065397;28;20040;-80
2023/01/29 10:44:01;;;;;;;60.85;55.13;;;;;;;1.42;100.00;101664.84;5064813;28;20048;-79
2023/01/29 10:46:42;;;;;;;95.38;66.60;;;;;;;1.08;100.00;101655.28;5063745;28;20518;-79
2023/01/29 10:49:22;;;;;;;58.42;53.17;;;;;;;1.05;100.00;101666.00;5063726;28;20480;-79
2023/01/29 10:52:08;;;;;;;73.63;58.88;;;;;;;1.13;100.00;101663.63;5063253;28;20045;-79
2023/01/29 10:54:57;;;;;;;57.85;52.47;;;;;;;1.26;100.00;101658.22;5068654;28;20110;-80
2023/01/29 10:57:52;;;;;;;59.40;53.58;;;;;;;1.08;100.00;101659.69;5057109;28;20052;-79
2023/01/29 11:00:22;;;;;;;59.67;53.60;;;;;;;1.23;100.00;101644.56;5055672;28;20049;-79
2023/01/29 11:02:51;;;;;;;60.83;54.88;;;;;;;1.33;100.00;101632.41;5068209;28;20421;-79
2023/01/29 11:05:23;;;;;;;60.53;54.60;;;;;;;1.33;100.00;101637.63;5064138;28;20052;-80
2023/01/29 11:08:03;;;;;;;62.45;56.50;;;;;;;1.75;100.00;101638.56;5058577;28;20131;-80
2023/01/29 11:10:33;;;;;;;59.50;54.10;;;;;;;1.72;100.00;101632.75;5062918;28;20054;-80
2023/01/29 11:13:02;;;;;;;58.28;52.75;;;;;;;1.86;100.00;101631.63;5062464;28;20098;-79
2023/01/29 11:15:32;;;;;;;58.65;53.17;;;;;;;1.34;100.00;101631.47;5068332;28;20040;-79
2023/01/29 11:18:03;;;;;;;58.30;52.85;;;;;;;1.14;100.00;101626.03;5064683;28;20076;-80
2023/01/29 11:20:31;;;;;;;59.35;53.58;;;;;;;1.49;100.00;101627.59;5064095;28;20048;-79
2023/01/29 11:22:58;;;;;;;61.72;55.80;;;;;;;1.60;100.00;101618.84;5057019;28;20102;-79
2023/01/29 11:25:26;;;;;;;57.53;52.15;;;;;;;1.35;100.00;101635.72;5062406;28;20084;-80
2023/01/29 11:27:55;;;;;;;57.33;51.97;;;;;;;1.62;100.00;101630.03;5068392;28;20507;-79
2023/01/29 11:30:26;;;;;;;58.97;53.30;;;;;;;1.47;100.00;101632.13;5063441;28;20094;-81
2023/01/29 11:33:06;;;;;;;59.60;53.90;;;;;;;1.48;100.00;101633.78;5064057;28;20110;-79
2023/01/29 11:35:32;;;;;;;63.47;57.20;;;;;;;1.71;100.00;101628.47;5062740;28;20131;-79
2023/01/29 11:38:08;;;;;;;61.42;55.67;;;;;;;1.70;100.00;101630.25;5065524;28;20133;-80
2023/01/29 11:40:38;;;;;;;64.38;57.97;;;;;;;1.68;100.00;101621.69;5064631;28;20140;-79
2023/01/29 11:43:27;;;;;;;63.65;57.28;;;;;;;1.20;100.00;101631.72;5065959;28;20131;-79
2023/01/29 11:45:59;;;;;;;69.22;60.63;;;;;;;1.36;100.00;101627.78;5064694;28;20107;-79
2023/01/29 11:48:39;;;;;;;64.32;57.50;;;;;;;1.18;100.00;101625.78;5062143;28;20053;-79
2023/01/29 11:51:07;;;;;;;60.42;53.92;;;;;;;0.90;100.00;101626.16;5061795;28;20053;-79
2023/01/29 11:53:37;;;;;;;62.30;56.05;;;;;;;0.99;100.00;101619.38;5070137;28;20086;-79